Silver Valley, Texas
Current Conditions -  °F | °C
As of 2:15 PM on Wednesday 28 Jan 2015 (Local Time) from KCOM Reporting Station
Clear Clear  
Wind Chill: 78°   Ceiling: Unl
Heat Index: 79°   Visibility: 10mi
Dew Point: 49°   Wind: 13mph
Humidity: 35%   Direction: 180°S
Pressure: 30.04"   Gusts: 17mph
Location:  31.8779°N, 99.43°W
Report Text: KCOM 282015Z AUTO 18011G15KT 10SM CLR 26/09 A3004 RMK AO2 T02570092
Loading
Personal Weather Stations






























Interactive Weather Map New forecast layout! Learn more

10-Day Weather Forecast

Advertisements
Track Severe Weather on mobile